createdAt,value
2022-07-27T00:01:51.105Z,7.53
2022-07-27T00:04:19.454Z,7.85
2022-07-27T00:06:53.135Z,7.80
2022-07-27T00:09:23.528Z,7.75
2022-07-27T00:11:55.173Z,7.92
2022-07-27T00:14:24.974Z,8.78
2022-07-27T00:16:54.659Z,8.70
2022-07-27T00:19:24.310Z,8.48
2022-07-27T00:21:54.357Z,8.88
2022-07-27T00:24:24.985Z,9.90
2022-07-27T00:26:54.714Z,9.03
2022-07-27T00:29:24.502Z,8.63
2022-07-27T00:31:53.641Z,8.78
2022-07-27T00:34:22.610Z,9.15
2022-07-27T00:36:51.621Z,9.10
2022-07-27T00:39:21.674Z,9.40
2022-07-27T00:41:50.800Z,8.78
2022-07-27T00:44:28.355Z,8.65
2022-07-27T00:46:58.386Z,8.88
2022-07-27T00:49:28.668Z,8.28
2022-07-27T00:51:57.604Z,7.95
2022-07-27T00:54:27.887Z,8.15
2022-07-27T00:56:59.542Z,8.08
2022-07-27T00:59:29.153Z,8.13
2022-07-27T01:01:59.845Z,7.35
2022-07-27T01:04:28.759Z,7.22
2022-07-27T01:07:00.132Z,7.78
2022-07-27T01:09:48.013Z,7.87
2022-07-27T01:12:19.231Z,7.17
2022-07-27T01:14:49.672Z,6.95
2022-07-27T01:17:20.070Z,7.10
2022-07-27T01:19:49.947Z,7.22
2022-07-27T01:22:21.349Z,6.22
2022-07-27T01:24:50.874Z,6.55
2022-07-27T01:27:20.256Z,6.08
2022-07-27T01:29:49.847Z,6.33
2022-07-27T01:32:19.299Z,6.08
2022-07-27T01:34:48.247Z,6.47
2022-07-27T01:37:19.531Z,7.30
2022-07-27T01:39:49.508Z,7.50
2022-07-27T01:42:19.308Z,7.58
2022-07-27T01:44:49.260Z,7.10
2022-07-27T01:47:20.076Z,7.12
2022-07-27T01:49:49.838Z,7.47
2022-07-27T01:52:20.234Z,7.80
2022-07-27T01:54:50.412Z,8.00
2022-07-27T01:57:20.253Z,8.33
2022-07-27T01:59:49.984Z,7.42
2022-07-27T02:02:19.449Z,7.95
2022-07-27T02:04:49.258Z,8.40
2022-07-27T02:07:18.617Z,9.63
2022-07-27T02:09:47.749Z,10.85
2022-07-27T02:12:35.471Z,9.60
2022-07-27T02:15:15.028Z,10.53
2022-07-27T02:17:45.362Z,11.10
2022-07-27T02:20:18.479Z,9.90
2022-07-27T02:22:48.051Z,9.45
2022-07-27T02:25:19.132Z,8.58
2022-07-27T02:27:49.129Z,7.05
2022-07-27T02:30:19.277Z,6.60
2022-07-27T02:32:49.595Z,6.10
2022-07-27T02:35:20.443Z,6.40
2022-07-27T02:37:49.569Z,6.92
2022-07-27T02:40:20.374Z,7.30
2022-07-27T02:42:49.547Z,6.45
2022-07-27T02:45:19.115Z,6.95
2022-07-27T02:47:49.323Z,6.62
2022-07-27T02:50:19.644Z,6.70
2022-07-27T02:52:48.649Z,6.90
2022-07-27T02:55:18.856Z,6.83
2022-07-27T02:57:48.625Z,6.45
2022-07-27T03:00:19.995Z,6.17
2022-07-27T03:02:51.041Z,5.85
2022-07-27T03:05:20.084Z,6.35
2022-07-27T03:07:49.830Z,6.33
2022-07-27T03:10:19.453Z,6.05
2022-07-27T03:12:48.577Z,5.83
2022-07-27T03:15:17.799Z,5.65
2022-07-27T03:17:48.446Z,5.50
2022-07-27T03:20:17.646Z,6.15
2022-07-27T03:22:47.947Z,6.17
2022-07-27T03:25:17.902Z,6.40
2022-07-27T03:27:47.170Z,6.30
2022-07-27T03:30:17.664Z,6.35
2022-07-27T03:32:48.305Z,6.00
2022-07-27T03:35:19.784Z,6.75
2022-07-27T03:37:50.377Z,5.50
2022-07-27T03:40:21.786Z,6.08
2022-07-27T03:42:50.552Z,6.08
2022-07-27T03:45:23.304Z,5.95
2022-07-27T03:47:52.230Z,6.20
2022-07-27T03:50:23.894Z,5.20
2022-07-27T03:52:54.313Z,5.72
2022-07-27T03:55:23.570Z,5.45
2022-07-27T03:57:53.643Z,5.08
2022-07-27T04:00:23.092Z,5.60
2022-07-27T04:02:53.279Z,5.00
2022-07-27T04:05:23.097Z,5.28
2022-07-27T04:07:54.795Z,5.47
2022-07-27T04:10:31.612Z,5.30
2022-07-27T04:12:57.878Z,4.42
2022-07-27T04:15:28.942Z,4.42
2022-07-27T04:17:59.078Z,4.85
2022-07-27T04:20:29.353Z,4.30
2022-07-27T04:22:58.840Z,3.80
2022-07-27T04:25:30.541Z,3.12
2022-07-27T04:28:00.217Z,2.85
2022-07-27T04:30:30.154Z,3.12
2022-07-27T04:32:59.793Z,2.80
2022-07-27T04:35:29.181Z,2.70
2022-07-27T04:37:59.811Z,2.58
2022-07-27T04:40:33.320Z,2.40
2022-07-27T04:43:04.015Z,6.87
2022-07-27T04:45:34.526Z,2.72
2022-07-27T04:48:10.452Z,2.40
2022-07-27T04:50:42.058Z,2.35
2022-07-27T04:53:11.882Z,2.08
2022-07-27T04:55:44.764Z,2.30
2022-07-27T04:58:16.777Z,2.47
2022-07-27T05:00:47.062Z,2.25
2022-07-27T05:03:18.547Z,2.70
2022-07-27T05:05:49.774Z,2.40
2022-07-27T05:08:19.491Z,2.60
2022-07-27T05:10:50.929Z,2.50
2022-07-27T05:13:20.125Z,3.67
2022-07-27T05:15:55.582Z,2.50
2022-07-27T05:18:24.371Z,2.60
2022-07-27T05:20:55.748Z,2.47
2022-07-27T05:23:25.669Z,2.50
2022-07-27T05:25:55.583Z,2.50
2022-07-27T05:28:24.822Z,2.05
2022-07-27T05:30:54.320Z,2.20
2022-07-27T05:33:25.573Z,2.40
2022-07-27T05:35:56.805Z,2.60
2022-07-27T05:38:26.360Z,2.90
2022-07-27T05:40:56.300Z,3.98
2022-07-27T05:43:25.610Z,2.80
2022-07-27T05:45:55.141Z,2.42
2022-07-27T05:48:26.881Z,3.90
2022-07-27T05:50:55.904Z,3.42
2022-07-27T05:53:26.267Z,3.30
2022-07-27T05:55:58.170Z,2.83
2022-07-27T05:58:30.798Z,2.60
2022-07-27T06:00:59.975Z,2.02
2022-07-27T06:03:30.121Z,2.27
2022-07-27T06:06:18.512Z,2.50
2022-07-27T06:08:50.301Z,2.30
2022-07-27T06:11:20.625Z,2.75
2022-07-27T06:13:52.699Z,2.58
2022-07-27T06:16:25.235Z,2.00
2022-07-27T06:18:54.958Z,4.67
2022-07-27T06:21:26.083Z,3.20
2022-07-27T06:23:56.156Z,2.00
2022-07-27T06:26:25.998Z,2.17
2022-07-27T06:28:58.550Z,2.90
2022-07-27T06:31:29.543Z,2.17
2022-07-27T06:34:00.337Z,2.70
2022-07-27T06:36:30.492Z,2.67
2022-07-27T06:39:01.000Z,2.27
2022-07-27T06:41:33.062Z,2.70
2022-07-27T06:44:03.483Z,4.30
2022-07-27T06:46:32.378Z,2.30
2022-07-27T06:49:01.718Z,4.00
2022-07-27T06:51:31.620Z,5.10
2022-07-27T06:54:05.174Z,2.25
2022-07-27T06:56:33.991Z,2.50
2022-07-27T06:59:03.731Z,3.75
2022-07-27T07:01:34.122Z,2.72
2022-07-27T07:04:04.086Z,2.05
2022-07-27T07:06:34.510Z,2.15
2022-07-27T07:09:03.949Z,2.27
2022-07-27T07:11:33.183Z,2.02
2022-07-27T07:14:04.679Z,2.80
2022-07-27T07:16:33.876Z,2.92
2022-07-27T07:19:05.553Z,1.98
2022-07-27T07:21:35.086Z,2.58
2022-07-27T07:24:04.657Z,2.25
2022-07-27T07:26:36.090Z,1.95
2022-07-27T07:29:09.823Z,2.45
2022-07-27T07:31:40.056Z,2.30
2022-07-27T07:34:11.352Z,2.08
2022-07-27T07:36:41.258Z,2.33
2022-07-27T07:39:11.995Z,2.42
2022-07-27T07:41:41.677Z,1.98
2022-07-27T07:44:12.872Z,2.12
2022-07-27T07:46:47.254Z,2.40
2022-07-27T07:49:16.316Z,2.27
2022-07-27T07:51:49.405Z,2.30
2022-07-27T07:54:19.516Z,2.40
2022-07-27T07:56:49.407Z,2.12
2022-07-27T07:59:19.105Z,2.12
2022-07-27T08:01:48.755Z,2.77
2022-07-27T08:04:18.353Z,2.17
2022-07-27T08:06:50.590Z,2.00
2022-07-27T08:09:21.689Z,2.10
2022-07-27T08:11:52.637Z,2.62
2022-07-27T08:14:23.912Z,2.67
2022-07-27T08:16:53.687Z,2.50
2022-07-27T08:19:25.262Z,2.30
2022-07-27T08:21:55.714Z,2.27
2022-07-27T08:24:25.765Z,2.50
2022-07-27T08:26:55.453Z,2.35
2022-07-27T08:29:24.518Z,2.40
2022-07-27T08:31:56.381Z,3.08
2022-07-27T08:34:27.303Z,2.33
2022-07-27T08:36:56.313Z,1.90
2022-07-27T08:40:20.122Z,2.42
2022-07-27T08:42:00.114Z,3.25
2022-07-27T08:44:34.549Z,2.12
2022-07-27T08:47:05.182Z,2.30
2022-07-27T08:49:43.665Z,2.10
2022-07-27T08:52:10.850Z,2.10
2022-07-27T08:54:43.117Z,2.77
2022-07-27T08:57:14.471Z,2.00
2022-07-27T08:59:45.369Z,2.00
2022-07-27T09:02:16.127Z,2.30
2022-07-27T09:04:49.316Z,2.15
2022-07-27T09:07:31.868Z,2.30
2022-07-27T09:10:04.300Z,2.22
2022-07-27T09:12:35.906Z,1.98
2022-07-27T09:15:10.947Z,2.37
2022-07-27T09:17:48.436Z,3.37
2022-07-27T09:20:20.998Z,2.50
2022-07-27T09:22:56.901Z,2.00
2022-07-27T09:26:02.712Z,2.40
2022-07-27T09:28:01.167Z,2.17
2022-07-27T09:30:31.344Z,2.90
2022-07-27T09:33:04.327Z,2.50
2022-07-27T09:35:35.247Z,2.45
2022-07-27T09:38:23.482Z,2.72
2022-07-27T09:41:04.159Z,2.10
2022-07-27T09:44:29.777Z,2.17
2022-07-27T09:46:34.313Z,2.33
2022-07-27T09:49:04.111Z,2.10
2022-07-27T09:51:59.594Z,2.50
2022-07-27T09:54:11.962Z,2.22
2022-07-27T09:56:44.996Z,2.13
2022-07-27T09:59:18.908Z,2.40
2022-07-27T10:01:54.457Z,2.00
2022-07-27T10:04:22.830Z,2.25
2022-07-27T10:07:06.128Z,2.30
2022-07-27T10:09:28.831Z,2.15
2022-07-27T10:12:00.087Z,2.20
2022-07-27T10:14:29.561Z,2.95
2022-07-27T10:17:00.157Z,1.92
2022-07-27T10:19:47.288Z,2.00
2022-07-27T10:22:18.091Z,2.30
2022-07-27T10:24:53.736Z,2.10
2022-07-27T10:27:30.453Z,2.10
2022-07-27T10:30:00.002Z,2.35
2022-07-27T10:32:30.825Z,1.85
2022-07-27T10:35:01.575Z,2.90
2022-07-27T10:37:34.425Z,2.20
2022-07-27T10:40:25.772Z,2.08
2022-07-27T10:43:08.857Z,1.90
2022-07-27T10:45:50.238Z,2.40
2022-07-27T10:48:44.176Z,2.35
2022-07-27T10:51:11.378Z,1.90
2022-07-27T10:54:10.414Z,1.87
2022-07-27T10:56:15.377Z,2.58
2022-07-27T10:58:45.531Z,2.22
2022-07-27T11:01:15.869Z,1.72
2022-07-27T11:03:48.584Z,2.00
2022-07-27T11:07:15.054Z,1.90
2022-07-27T11:09:27.288Z,2.20
2022-07-27T11:11:26.737Z,2.20
2022-07-27T11:14:01.006Z,1.77
2022-07-27T11:16:31.112Z,1.80
2022-07-27T11:19:06.587Z,1.92
2022-07-27T11:21:38.134Z,2.02
2022-07-27T11:24:15.145Z,2.20
2022-07-27T11:26:50.413Z,1.75
2022-07-27T11:29:22.167Z,2.27
2022-07-27T11:31:57.321Z,2.05
2022-07-27T11:34:36.655Z,2.30
2022-07-27T11:37:11.741Z,2.70
2022-07-27T11:42:18.039Z,1.70
2022-07-27T11:44:47.919Z,1.50
2022-07-27T11:47:20.464Z,1.70
2022-07-27T11:49:50.629Z,1.90
2022-07-27T11:52:20.642Z,2.05
2022-07-27T11:54:53.072Z,2.35
2022-07-27T11:57:23.290Z,2.08
2022-07-27T11:59:53.134Z,1.82
2022-07-27T12:02:23.119Z,2.20
2022-07-27T12:04:57.796Z,2.10
2022-07-27T12:07:33.890Z,1.95
2022-07-27T12:10:06.729Z,2.30
2022-07-27T12:12:37.447Z,2.33
2022-07-27T12:17:57.685Z,2.40
2022-07-27T12:20:34.668Z,2.30
2022-07-27T12:25:39.871Z,2.30
2022-07-27T12:28:14.802Z,2.17
2022-07-27T12:30:48.688Z,2.08
2022-07-27T12:33:37.019Z,2.33
2022-07-27T12:36:09.065Z,4.50
2022-07-27T12:38:53.410Z,3.15
2022-07-27T12:41:30.731Z,2.80
2022-07-27T12:44:18.949Z,2.58
2022-07-27T12:47:02.491Z,2.47
2022-07-27T12:49:40.798Z,2.20
2022-07-27T12:52:11.846Z,2.40
2022-07-27T12:54:45.263Z,2.22
2022-07-27T12:57:24.406Z,2.27
2022-07-27T12:59:48.223Z,2.10
2022-07-27T13:02:18.838Z,1.98
2022-07-27T13:04:48.908Z,2.30
2022-07-27T13:07:20.434Z,2.35
2022-07-27T13:10:03.598Z,2.50
2022-07-27T13:12:22.729Z,2.25
2022-07-27T13:14:54.067Z,2.40
2022-07-27T13:17:24.929Z,2.30
2022-07-27T13:19:54.959Z,2.00
2022-07-27T13:22:24.546Z,2.60
2022-07-27T13:24:54.682Z,3.67
2022-07-27T13:27:25.509Z,3.35
2022-07-27T13:29:55.800Z,3.10
2022-07-27T13:32:26.220Z,6.55
2022-07-27T13:34:56.867Z,2.50
2022-07-27T13:37:27.395Z,2.60
2022-07-27T13:39:57.513Z,2.27
2022-07-27T13:42:27.729Z,2.87
2022-07-27T13:45:08.035Z,2.10
2022-07-27T13:47:30.104Z,2.00
2022-07-27T13:50:01.769Z,2.77
2022-07-27T13:52:31.956Z,2.20
2022-07-27T13:55:02.208Z,2.30
2022-07-27T13:57:32.618Z,2.40
2022-07-27T14:00:03.623Z,1.90
2022-07-27T14:02:34.942Z,1.75
2022-07-27T14:05:05.951Z,2.17
2022-07-27T14:07:35.783Z,1.90
2022-07-27T14:10:25.689Z,2.02
2022-07-27T14:12:58.976Z,2.05
2022-07-27T14:15:29.295Z,2.37
2022-07-27T14:18:00.561Z,1.98
2022-07-27T14:20:31.446Z,2.30
2022-07-27T14:23:00.683Z,2.30
2022-07-27T14:25:30.604Z,2.60
2022-07-27T14:28:00.697Z,2.10
2022-07-27T14:30:30.644Z,2.33
2022-07-27T14:33:02.981Z,2.40
2022-07-27T14:35:39.942Z,2.33
2022-07-27T14:38:05.657Z,2.60
2022-07-27T14:40:36.093Z,2.20
2022-07-27T14:43:05.463Z,2.40
2022-07-27T14:45:44.412Z,2.30
2022-07-27T14:48:08.254Z,2.20
2022-07-27T14:50:39.435Z,2.60
2022-07-27T14:53:08.639Z,2.40
2022-07-27T14:55:42.499Z,2.50
2022-07-27T14:58:11.513Z,5.30
2022-07-27T15:00:41.030Z,2.92
2022-07-27T15:03:14.753Z,2.60
2022-07-27T15:05:49.351Z,3.00
2022-07-27T15:08:13.145Z,2.72
2022-07-27T15:10:44.543Z,3.20
2022-07-27T15:13:15.809Z,3.17
2022-07-27T15:15:47.830Z,3.27
2022-07-27T15:18:21.057Z,2.77
2022-07-27T15:20:51.388Z,2.80
2022-07-27T15:23:22.338Z,2.95
2022-07-27T15:25:52.247Z,3.65
2022-07-27T15:28:23.384Z,2.98
2022-07-27T15:30:54.329Z,2.77
2022-07-27T15:33:26.985Z,3.02
2022-07-27T15:35:58.658Z,3.22
2022-07-27T15:38:28.115Z,3.42
2022-07-27T15:40:58.418Z,3.70
2022-07-27T15:43:29.270Z,2.98
2022-07-27T15:45:59.751Z,3.15
2022-07-27T15:48:30.335Z,3.20
2022-07-27T15:51:00.793Z,4.17
2022-07-27T15:53:32.439Z,3.27
2022-07-27T15:56:02.546Z,3.47
2022-07-27T15:58:31.641Z,3.62
2022-07-27T16:01:00.892Z,3.70
2022-07-27T16:03:31.374Z,3.75
2022-07-27T16:06:01.502Z,3.72
2022-07-27T16:08:32.339Z,3.08
2022-07-27T16:11:01.965Z,3.80
2022-07-27T16:13:32.262Z,3.62
2022-07-27T16:16:22.429Z,3.62
2022-07-27T16:18:57.344Z,3.42
2022-07-27T16:21:27.686Z,3.27
2022-07-27T16:23:57.303Z,3.20
2022-07-27T16:26:27.179Z,3.12
2022-07-27T16:28:58.401Z,3.35
2022-07-27T16:31:28.840Z,3.35
2022-07-27T16:34:01.020Z,3.30
2022-07-27T16:36:38.209Z,3.33
2022-07-27T16:39:04.073Z,3.30
2022-07-27T16:41:33.354Z,3.47
2022-07-27T16:44:02.997Z,3.02
2022-07-27T16:46:33.659Z,3.40
2022-07-27T16:49:04.031Z,3.35
2022-07-27T16:51:33.671Z,3.60
2022-07-27T16:54:02.759Z,3.45
2022-07-27T16:56:33.579Z,3.58
2022-07-27T16:59:03.784Z,3.58
2022-07-27T17:01:34.081Z,3.40
2022-07-27T17:04:04.725Z,3.50
2022-07-27T17:06:34.989Z,3.58
2022-07-27T17:09:04.917Z,3.37
2022-07-27T17:11:37.506Z,2.77
2022-07-27T17:14:07.460Z,2.40
2022-07-27T17:16:37.647Z,2.60
2022-07-27T17:19:07.639Z,2.70
2022-07-27T17:21:39.850Z,3.02
2022-07-27T17:24:10.292Z,2.72
2022-07-27T17:26:40.202Z,2.92
2022-07-27T17:29:10.658Z,2.70
2022-07-27T17:31:42.176Z,2.85
2022-07-27T17:34:12.319Z,2.80
2022-07-27T17:36:42.379Z,2.70
2022-07-27T17:39:12.012Z,2.85
2022-07-27T17:41:41.582Z,2.92
2022-07-27T17:44:12.419Z,2.85
2022-07-27T17:46:43.096Z,3.05
2022-07-27T17:49:12.782Z,3.30
2022-07-27T17:51:43.012Z,3.42
2022-07-27T17:54:12.385Z,2.87
2022-07-27T17:56:44.026Z,3.27
2022-07-27T17:59:36.009Z,3.50
2022-07-27T18:01:46.911Z,3.37
2022-07-27T18:04:16.457Z,3.40
2022-07-27T18:06:45.957Z,4.65
2022-07-27T18:09:17.205Z,3.67
2022-07-27T18:11:49.270Z,3.70
2022-07-27T18:14:19.468Z,3.83
2022-07-27T18:16:48.889Z,3.58
2022-07-27T18:19:19.258Z,3.67
2022-07-27T18:21:49.777Z,3.87
2022-07-27T18:24:24.046Z,3.58
2022-07-27T18:26:56.667Z,3.90
2022-07-27T18:29:28.110Z,3.90
2022-07-27T18:31:57.334Z,3.98
2022-07-27T18:34:27.034Z,3.90
2022-07-27T18:36:57.029Z,4.08
2022-07-27T18:39:32.413Z,3.80
2022-07-27T18:42:01.762Z,4.22
2022-07-27T18:44:38.601Z,4.25
2022-07-27T18:47:05.985Z,4.10
2022-07-27T18:49:36.894Z,4.00
2022-07-27T18:52:07.498Z,3.80
2022-07-27T18:54:38.635Z,3.90
2022-07-27T18:57:08.209Z,3.70
2022-07-27T18:59:41.070Z,4.25
2022-07-27T19:02:11.235Z,4.20
2022-07-27T19:04:41.258Z,4.90
2022-07-27T19:07:11.320Z,3.85
2022-07-27T19:09:45.074Z,3.98
2022-07-27T19:12:15.537Z,4.12
2022-07-27T19:14:45.435Z,4.15
2022-07-27T19:17:17.505Z,4.10
2022-07-27T19:19:48.929Z,3.90
2022-07-27T19:22:22.713Z,3.62
2022-07-27T19:24:55.001Z,3.35
2022-07-27T19:27:24.772Z,3.12
2022-07-27T19:29:56.187Z,2.85
2022-07-27T19:32:26.792Z,3.27
2022-07-27T19:34:57.038Z,2.83
2022-07-27T19:37:28.339Z,3.42
2022-07-27T19:40:05.611Z,3.02
2022-07-27T19:42:30.888Z,2.95
2022-07-27T19:45:02.468Z,3.27
2022-07-27T19:47:33.996Z,3.30
2022-07-27T19:50:05.138Z,2.98
2022-07-27T19:52:35.089Z,2.72
2022-07-27T19:55:06.508Z,2.83
2022-07-27T19:57:36.941Z,2.87
2022-07-27T20:00:09.126Z,2.77
2022-07-27T20:02:39.501Z,2.77
2022-07-27T20:05:10.543Z,2.58
2022-07-27T20:07:43.172Z,2.67
2022-07-27T20:10:13.467Z,2.40
2022-07-27T20:12:43.108Z,2.70
2022-07-27T20:15:13.026Z,2.98
2022-07-27T20:17:44.638Z,2.90
2022-07-27T20:20:15.716Z,2.70
2022-07-27T20:22:45.103Z,2.30
2022-07-27T20:25:14.725Z,2.62
2022-07-27T20:27:45.177Z,2.50
2022-07-27T20:30:17.026Z,2.50
2022-07-27T20:32:50.433Z,2.42
2022-07-27T20:35:19.558Z,2.60
2022-07-27T20:37:49.106Z,2.35
2022-07-27T20:40:20.462Z,2.22
2022-07-27T20:42:50.476Z,2.55
2022-07-27T20:45:20.788Z,2.08
2022-07-27T20:47:51.785Z,2.27
2022-07-27T20:50:22.245Z,1.67
2022-07-27T20:52:53.494Z,2.00
2022-07-27T20:55:23.922Z,1.90
2022-07-27T20:57:53.131Z,2.08
2022-07-27T21:00:28.914Z,1.90
2022-07-27T21:02:56.637Z,1.70
2022-07-27T21:05:28.206Z,1.90
2022-07-27T21:07:59.659Z,1.92
2022-07-27T21:10:29.510Z,2.33
2022-07-27T21:12:59.664Z,2.02
2022-07-27T21:15:33.942Z,1.90
2022-07-27T21:18:04.261Z,1.80
2022-07-27T21:20:34.366Z,1.62
2022-07-27T21:23:22.862Z,1.77
2022-07-27T21:25:53.180Z,2.00
2022-07-27T21:28:25.214Z,1.80
2022-07-27T21:30:55.012Z,1.60
2022-07-27T21:33:25.297Z,1.80
2022-07-27T21:35:55.726Z,2.10
2022-07-27T21:38:25.983Z,2.50
2022-07-27T21:40:56.925Z,2.50
2022-07-27T21:43:27.072Z,2.20
2022-07-27T21:45:56.421Z,2.20
2022-07-27T21:48:26.403Z,2.30
2022-07-27T21:50:55.329Z,2.42
2022-07-27T21:53:25.040Z,2.45
2022-07-27T21:55:53.859Z,2.25
2022-07-27T21:58:24.069Z,2.50
2022-07-27T22:00:53.864Z,2.00
2022-07-27T22:03:24.087Z,2.40
2022-07-27T22:05:54.297Z,2.30
2022-07-27T22:08:24.460Z,2.20
2022-07-27T22:10:53.882Z,2.33
2022-07-27T22:13:24.178Z,2.15
2022-07-27T22:15:55.550Z,2.40
2022-07-27T22:18:26.641Z,2.30
2022-07-27T22:20:58.517Z,2.55
2022-07-27T22:23:30.676Z,2.80
2022-07-27T22:26:01.185Z,2.85
2022-07-27T22:28:30.613Z,2.90
2022-07-27T22:31:21.724Z,2.60
2022-07-27T22:33:32.681Z,2.80
2022-07-27T22:36:02.228Z,3.00
2022-07-27T22:38:32.176Z,2.92
2022-07-27T22:41:03.892Z,2.70
2022-07-27T22:43:34.370Z,2.90
2022-07-27T22:46:07.166Z,2.60
2022-07-27T22:48:36.758Z,2.92
2022-07-27T22:51:06.043Z,2.95
2022-07-27T22:53:35.194Z,3.20
2022-07-27T22:56:06.032Z,3.58
2022-07-27T22:58:35.666Z,3.22
2022-07-27T23:01:05.564Z,3.22
2022-07-27T23:03:37.064Z,3.33
2022-07-27T23:06:07.514Z,3.08
2022-07-27T23:08:37.354Z,3.35
2022-07-27T23:11:07.090Z,3.17
2022-07-27T23:13:37.631Z,3.25
2022-07-27T23:16:06.765Z,2.98
2022-07-27T23:18:36.489Z,2.80
2022-07-27T23:21:05.757Z,3.17
2022-07-27T23:23:39.840Z,2.65
2022-07-27T23:26:07.526Z,3.12
2022-07-27T23:28:40.560Z,2.80
2022-07-27T23:31:12.227Z,2.75
2022-07-27T23:33:46.732Z,2.75
2022-07-27T23:36:16.900Z,2.45
2022-07-27T23:38:46.174Z,2.67
2022-07-27T23:41:16.628Z,2.33
2022-07-27T23:43:47.204Z,2.52
2022-07-27T23:46:18.881Z,2.42
2022-07-27T23:48:48.392Z,2.50
2022-07-27T23:51:21.253Z,2.47
2022-07-27T23:53:50.794Z,2.40
2022-07-27T23:56:20.665Z,2.25
2022-07-27T23:58:49.596Z,2.47
